Time;durP1;ratioP1;P1;durP2;ratioP2;P2;SDS_P1;SDS_P2;PMS_P1;PMS_P2;Temp;Humidity;BMP_temperature;BMP_pressure;BME280_temperature;BME280_humidity;BME280_pressure;Samples;Min_cycle;Max_cycle;Signal;HPM_P1;HPM_P2
2024/01/23 00:01:24;;;;;;;5.03;1.27;;;7.40;82.60;;;8.65;60.70;98174.44;5074573;28;20044;-59
2024/01/23 00:03:52;;;;;;;3.70;1.50;;;7.50;82.60;;;8.55;60.72;98178.03;5074094;28;20040;-58
2024/01/23 00:06:20;;;;;;;2.87;1.03;;;7.40;82.20;;;8.43;59.95;98190.56;5074289;28;20045;-58
2024/01/23 00:08:48;;;;;;;5.23;1.57;;;7.40;80.50;;;8.61;60.49;98173.03;5074672;28;20040;-58
2024/01/23 00:11:16;;;;;;;4.60;1.20;;;7.40;82.10;;;8.54;60.45;98155.97;5074468;28;20052;-58
2024/01/23 00:13:45;;;;;;;5.50;1.60;;;7.40;81.50;;;8.50;60.51;98164.34;5074140;28;20052;-59
2024/01/23 00:16:13;;;;;;;1.40;0.80;;;7.40;81.10;;;8.55;60.19;98172.72;5073916;28;20060;-59
2024/01/23 00:18:41;;;;;;;7.87;2.00;;;7.40;80.90;;;8.63;60.15;98151.66;5074495;28;20267;-59
2024/01/23 00:21:09;;;;;;;5.50;1.50;;;7.40;81.20;;;8.64;60.01;98161.28;5074242;28;20043;-59
2024/01/23 00:23:37;;;;;;;5.27;1.47;;;7.40;80.30;;;8.69;59.85;98158.25;5074012;28;20041;-58
2024/01/23 00:26:05;;;;;;;4.00;1.63;;;7.50;80.80;;;8.73;59.75;98162.31;5073868;28;20416;-59
2024/01/23 00:28:32;;;;;;;3.67;2.23;;;7.50;79.70;;;8.62;59.76;98164.06;5066353;28;20051;-58
2024/01/23 00:31:00;;;;;;;4.50;1.40;;;7.40;80.00;;;8.74;59.45;98151.53;5074110;28;20044;-58
2024/01/23 00:33:27;;;;;;;8.13;1.20;;;7.50;80.00;;;8.68;59.48;98149.41;5073680;28;20044;-59
2024/01/23 00:35:55;;;;;;;4.47;2.43;;;7.40;79.60;;;8.71;59.48;98151.00;5073700;28;20047;-59
2024/01/23 00:38:23;;;;;;;4.30;1.40;;;7.40;79.40;;;8.70;59.06;98155.44;5073559;28;20040;-59
2024/01/23 00:40:50;;;;;;;3.63;1.50;;;7.40;78.60;;;8.78;58.83;98160.06;5073830;28;20052;-58
2024/01/23 00:43:18;;;;;;;5.53;1.43;;;7.50;78.40;;;8.67;58.76;98159.22;5073338;28;20041;-58
2024/01/23 00:45:46;;;;;;;2.37;1.20;;;7.50;78.30;;;8.73;58.88;98173.75;5073751;28;20051;-58
2024/01/23 00:48:17;;;;;;;5.50;1.37;;;7.50;78.70;;;8.63;58.79;98164.94;5073811;28;20651;-58
2024/01/23 00:50:45;;;;;;;5.80;1.77;;;7.50;78.00;;;8.48;59.09;98160.00;5073567;28;20049;-58
2024/01/23 00:53:13;;;;;;;5.43;1.30;;;7.40;78.60;;;8.64;59.04;98148.84;5073173;28;20052;-58
2024/01/23 00:55:40;;;;;;;8.57;1.37;;;7.50;78.60;;;8.59;58.88;98182.94;5073460;28;20052;-58
2024/01/23 00:58:08;;;;;;;4.90;1.27;;;7.50;78.00;;;8.57;58.79;98157.50;5073532;28;20424;-58
2024/01/23 01:00:36;;;;;;;3.87;1.20;;;7.50;78.20;;;8.45;58.86;98183.31;5073620;28;20063;-59
2024/01/23 01:03:04;;;;;;;8.00;2.70;;;7.50;77.50;;;8.28;59.20;98177.63;5073157;28;20049;-58
2024/01/23 01:05:32;;;;;;;5.47;1.40;;;7.40;77.50;;;8.44;59.16;98198.38;5072715;28;20048;-58
2024/01/23 01:08:00;;;;;;;4.63;1.50;;;7.50;78.00;;;8.44;59.45;98178.97;5073428;28;20462;-58
2024/01/23 01:10:28;;;;;;;6.97;3.30;;;7.50;78.20;;;8.42;59.31;98200.34;5072957;28;20045;-58
2024/01/23 01:12:55;;;;;;;6.10;1.53;;;7.50;78.50;;;8.44;59.26;98197.56;5051599;28;20045;-58
2024/01/23 01:15:23;;;;;;;7.70;1.80;;;7.50;78.50;;;8.29;59.64;98199.69;5071395;28;20069;-57
2024/01/23 01:17:50;;;;;;;11.53;2.70;;;7.40;78.30;;;8.26;59.83;98187.53;5073706;28;20044;-58
2024/01/23 01:20:18;;;;;;;4.03;1.73;;;7.40;78.50;;;8.34;59.45;98172.78;5071221;28;20052;-57
2024/01/23 01:22:46;;;;;;;5.60;2.00;;;7.40;78.30;;;8.28;59.41;98184.75;5071644;28;20048;-58
2024/01/23 01:25:14;;;;;;;3.13;1.17;;;7.30;78.50;;;8.37;59.58;98181.28;5072680;28;20053;-58
2024/01/23 01:27:41;;;;;;;3.43;1.87;;;7.30;79.00;;;8.45;59.30;98192.13;5073135;28;20049;-57
2024/01/23 01:30:09;;;;;;;5.50;2.00;;;7.30;79.40;;;8.41;59.20;98184.50;5073108;28;20049;-58
2024/01/23 01:32:37;;;;;;;3.53;1.60;;;7.30;79.40;;;8.32;59.54;98178.22;5072732;28;20040;-58
2024/01/23 01:35:05;;;;;;;4.10;2.27;;;7.30;79.70;;;8.43;59.26;98212.66;5072684;28;20051;-57
2024/01/23 01:37:33;;;;;;;8.50;2.33;;;7.20;79.80;;;8.37;59.49;98204.34;5072628;28;20044;-58
2024/01/23 01:40:00;;;;;;;4.73;2.97;;;7.20;79.90;;;8.39;59.31;98218.31;5071581;28;20036;-57
2024/01/23 01:42:28;;;;;;;6.13;2.00;;;7.20;79.90;;;8.25;59.73;98225.63;5072188;28;20389;-58
2024/01/23 01:44:56;;;;;;;6.00;2.33;;;7.20;80.40;;;8.07;60.45;98246.63;5072457;28;20510;-58
2024/01/23 01:47:24;;;;;;;5.73;2.87;;;7.20;81.10;;;8.06;60.57;98237.00;5072377;28;20071;-58
2024/01/23 01:49:52;;;;;;;4.53;1.67;;;7.10;80.30;;;8.20;59.98;98214.59;5067947;28;20115;-57
2024/01/23 01:52:21;;;;;;;2.70;1.30;;;7.20;80.50;;;8.26;59.71;98240.59;5071086;28;20056;-58
2024/01/23 01:54:48;;;;;;;8.93;1.87;;;7.20;79.60;;;8.22;60.08;98220.63;5072417;28;20045;-57
2024/01/23 01:57:21;;;;;;;7.90;1.60;;;7.30;80.20;;;8.04;61.06;98232.78;5070867;28;20388;-58
2024/01/23 01:59:51;;;;;;;4.93;1.83;;;7.10;82.10;;;8.18;60.67;98213.91;5071393;28;20420;-57
2024/01/23 02:02:20;;;;;;;11.00;2.53;;;7.20;81.70;;;8.19;60.49;98233.31;5072068;28;20426;-58
2024/01/23 02:04:47;;;;;;;7.60;2.07;;;7.20;81.40;;;8.11;60.58;98233.13;5070287;28;20523;-58
2024/01/23 02:07:15;;;;;;;7.93;2.60;;;7.10;81.70;;;8.09;60.70;98223.47;5072220;28;20416;-58
2024/01/23 02:09:43;;;;;;;8.60;2.30;;;7.10;81.30;;;8.02;60.51;98227.63;5070826;28;20048;-58
2024/01/23 02:12:11;;;;;;;4.20;2.10;;;7.10;81.10;;;8.15;60.45;98226.59;5071896;28;20420;-58
2024/01/23 02:14:39;;;;;;;10.27;1.90;;;7.10;81.20;;;7.79;61.14;98242.84;5071867;28;20032;-58
2024/01/23 02:17:07;;;;;;;14.77;3.13;;;7.00;80.90;;;7.86;60.71;98240.50;5071162;28;20496;-57
2024/01/23 02:19:34;;;;;;;7.83;3.73;;;7.00;80.70;;;7.84;60.23;98253.88;5071669;28;20052;-57
2024/01/23 02:22:02;;;;;;;13.27;2.77;;;7.00;80.00;;;7.68;61.11;98253.50;5071538;28;20051;-58
2024/01/23 02:24:29;;;;;;;6.30;2.80;;;6.90;80.40;;;7.52;61.58;98245.97;5071761;28;20388;-57
2024/01/23 02:26:57;;;;;;;12.93;2.67;;;6.90;80.10;;;7.65;61.12;98240.50;5070680;28;20037;-58
2024/01/23 02:29:26;;;;;;;4.57;1.90;;;6.80;80.50;;;7.59;60.91;98243.66;5071713;28;20052;-57
2024/01/23 02:31:53;;;;;;;8.90;2.17;;;6.80;80.10;;;7.54;60.86;98238.75;5071791;28;20411;-57
2024/01/23 02:34:21;;;;;;;11.83;3.00;;;6.90;78.90;;;7.48;60.87;98232.16;5071005;28;20044;-58
2024/01/23 02:36:49;;;;;;;8.33;2.43;;;6.80;79.60;;;7.55;60.58;98245.72;5070262;28;20051;-58
2024/01/23 02:39:17;;;;;;;8.63;2.53;;;6.80;78.80;;;7.57;60.52;98235.81;5071652;28;20045;-58
2024/01/23 02:41:45;;;;;;;7.37;2.17;;;6.80;78.90;;;7.51;60.54;98224.91;5071562;28;20043;-59
2024/01/23 02:44:12;;;;;;;10.93;2.37;;;6.80;78.70;;;7.56;60.27;98251.84;5070691;28;20048;-58
2024/01/23 02:46:42;;;;;;;9.70;1.77;;;6.80;78.80;;;7.42;60.24;98245.03;5071509;28;20522;-58
2024/01/23 02:49:10;;;;;;;9.90;3.33;;;6.80;78.10;;;7.58;60.17;98234.00;5071299;28;20060;-59
2024/01/23 02:51:38;;;;;;;6.70;1.90;;;6.80;77.80;;;7.66;59.54;98228.94;5070725;28;20052;-58
2024/01/23 02:54:06;;;;;;;6.97;2.83;;;6.80;77.80;;;7.67;59.52;98225.31;5070799;28;20060;-59
2024/01/23 02:56:33;;;;;;;13.47;3.67;;;6.80;77.50;;;7.69;59.16;98268.41;5069452;28;20075;-57
2024/01/23 02:59:01;;;;;;;7.73;2.00;;;6.90;76.90;;;7.64;59.76;98263.50;5071241;28;20112;-59
2024/01/23 03:01:28;;;;;;;8.13;2.53;;;6.90;76.90;;;7.68;59.34;98259.63;5069950;28;20053;-58
2024/01/23 03:03:56;;;;;;;7.67;1.83;;;6.90;76.70;;;7.79;58.79;98263.19;5070966;28;20036;-58
2024/01/23 03:06:24;;;;;;;6.17;1.90;;;7.00;75.70;;;7.93;58.66;98273.50;5071241;28;20059;-58
2024/01/23 03:08:52;;;;;;;7.93;2.60;;;7.00;75.90;;;7.84;58.45;98279.56;5071327;28;20040;-58
2024/01/23 03:11:20;;;;;;;8.43;2.27;;;7.10;75.50;;;8.01;58.22;98259.59;5071160;28;20059;-58
2024/01/23 03:13:48;;;;;;;14.53;2.77;;;7.10;75.70;;;7.92;58.51;98279.75;5069913;28;20056;-58
2024/01/23 03:16:15;;;;;;;10.33;2.27;;;7.10;75.70;;;7.94;58.74;98264.56;5070922;28;20535;-57
2024/01/23 03:18:44;;;;;;;10.20;2.97;;;7.00;76.30;;;7.76;58.95;98292.63;5069745;28;20040;-59
2024/01/23 03:21:11;;;;;;;11.60;2.80;;;7.00;76.20;;;7.85;58.83;98303.28;5071060;28;20040;-59
2024/01/23 03:23:39;;;;;;;10.60;2.83;;;7.00;76.40;;;7.88;59.05;98303.03;5069263;28;20051;-58
2024/01/23 03:26:07;;;;;;;7.33;2.53;;;7.00;76.40;;;7.92;58.83;98302.78;5071042;28;20099;-58
2024/01/23 03:28:35;;;;;;;8.07;2.47;;;7.10;76.20;;;7.94;58.80;98312.28;5070660;28;20044;-58
2024/01/23 03:31:03;;;;;;;10.47;2.10;;;7.10;76.70;;;7.72;58.63;98333.59;5070556;28;20063;-58
2024/01/23 03:33:32;;;;;;;8.83;2.40;;;7.00;75.50;;;7.72;59.18;98315.88;5070528;28;20048;-56
2024/01/23 03:36:00;;;;;;;9.67;2.17;;;7.00;75.60;;;7.84;58.60;98321.97;5070793;28;20134;-57
2024/01/23 03:38:28;;;;;;;8.70;3.10;;;7.10;75.00;;;7.81;58.67;98301.00;5069122;28;20055;-58
2024/01/23 03:40:55;;;;;;;11.53;3.60;;;7.10;75.00;;;7.84;58.29;98327.28;5070900;28;20036;-58
2024/01/23 03:43:23;;;;;;;9.83;2.63;;;7.10;74.70;;;7.75;58.16;98349.22;5070294;28;20488;-58
2024/01/23 03:45:50;;;;;;;7.77;2.20;;;7.10;74.00;;;7.98;57.98;98320.81;5062663;28;20384;-58
2024/01/23 03:48:18;;;;;;;6.60;2.20;;;7.20;74.30;;;8.01;58.16;98325.88;5069715;28;20055;-58
2024/01/23 03:50:46;;;;;;;7.67;1.70;;;7.20;74.40;;;7.89;58.19;98320.63;5069374;28;20424;-59
2024/01/23 03:53:14;;;;;;;9.13;3.07;;;7.20;74.00;;;7.85;58.38;98327.16;5069458;28;20051;-58
2024/01/23 03:55:42;;;;;;;7.43;2.17;;;7.20;74.40;;;7.81;58.40;98330.16;5070456;28;20071;-58
2024/01/23 03:58:09;;;;;;;13.07;2.60;;;7.20;74.80;;;7.97;58.46;98333.25;5069651;28;20047;-58
2024/01/23 04:00:37;;;;;;;10.77;2.10;;;7.20;75.20;;;7.81;58.27;98340.78;5070637;28;20081;-58
2024/01/23 04:03:05;;;;;;;18.73;3.03;;;7.10;75.00;;;7.86;58.55;98339.44;5070356;28;20037;-59
2024/01/23 04:05:33;;;;;;;7.33;2.87;;;7.20;75.30;;;7.78;58.65;98336.56;5070360;28;20068;-59
2024/01/23 04:08:00;;;;;;;8.23;2.27;;;7.10;75.30;;;7.73;58.96;98346.69;5070460;28;20093;-58
2024/01/23 04:10:28;;;;;;;8.70;2.70;;;7.10;75.80;;;7.84;59.02;98343.19;5070318;28;20040;-58
2024/01/23 04:12:55;;;;;;;17.77;3.57;;;7.10;75.80;;;7.81;59.31;98331.03;5070224;28;20044;-58
2024/01/23 04:15:23;;;;;;;6.73;1.53;;;7.10;76.70;;;7.75;60.71;98370.44;5070127;28;20052;-58
2024/01/23 04:17:51;;;;;;;9.40;2.40;;;7.10;78.80;;;7.73;60.87;98346.69;5070073;28;20040;-57
2024/01/23 04:20:19;;;;;;;12.33;2.50;;;7.00;80.10;;;7.82;60.88;98350.41;5070512;28;20058;-58
2024/01/23 04:22:46;;;;;;;8.87;2.00;;;7.00;81.20;;;7.66;61.35;98351.69;5069938;28;20040;-58
2024/01/23 04:25:14;;;;;;;10.13;2.60;;;6.90;81.00;;;7.72;61.45;98355.63;5070649;28;20048;-57
2024/01/23 04:27:41;;;;;;;10.57;3.20;;;6.90;81.70;;;7.80;61.23;98360.31;5070386;28;20496;-57
2024/01/23 04:30:10;;;;;;;10.23;2.43;;;7.00;81.40;;;7.88;61.15;98360.50;5068951;28;20519;-57
2024/01/23 04:32:38;;;;;;;8.67;2.33;;;7.00;81.50;;;7.83;61.20;98386.56;5069566;28;20048;-58
2024/01/23 04:35:06;;;;;;;9.57;2.90;;;7.00;81.50;;;7.94;61.31;98391.81;5069212;28;20048;-55
2024/01/23 04:37:33;;;;;;;7.67;2.57;;;7.00;82.10;;;7.96;61.52;98360.72;5070195;28;20044;-57
2024/01/23 04:40:02;;;;;;;8.53;2.30;;;7.00;83.90;;;7.97;61.25;98375.66;5072580;28;20036;-57
2024/01/23 04:42:30;;;;;;;8.40;1.87;;;7.00;83.70;;;7.86;61.81;98391.63;5073464;28;20044;-57
2024/01/23 04:44:58;;;;;;;16.93;2.47;;;6.90;84.70;;;7.77;62.06;98384.41;5073664;28;20044;-58
2024/01/23 04:47:26;;;;;;;6.53;2.50;;;6.80;83.80;;;7.77;62.00;98390.53;5073859;28;20052;-58
2024/01/23 04:49:54;;;;;;;6.17;2.10;;;6.80;84.20;;;7.89;61.61;98394.84;5070289;28;20052;-58
2024/01/23 04:52:21;;;;;;;14.67;3.33;;;6.80;84.10;;;7.87;61.58;98403.88;5073909;28;20432;-56
2024/01/23 04:54:49;;;;;;;8.83;3.17;;;6.80;83.40;;;7.93;61.53;98390.16;5073546;28;20424;-58
2024/01/23 04:57:18;;;;;;;8.20;2.90;;;6.80;83.30;;;7.82;61.50;98409.56;5073168;28;20051;-58
2024/01/23 04:59:46;;;;;;;5.63;2.13;;;6.80;83.00;;;7.68;62.38;98405.41;5073815;28;20067;-57
2024/01/23 05:02:14;;;;;;;6.53;2.57;;;6.80;84.60;;;7.87;61.52;98396.78;5073540;28;20048;-58
2024/01/23 05:04:42;;;;;;;9.30;1.80;;;6.80;84.90;;;7.62;62.41;98405.91;5072599;28;20041;-57
2024/01/23 05:07:09;;;;;;;4.70;1.60;;;6.70;84.20;;;7.53;62.92;98409.28;5074538;28;20040;-57
2024/01/23 05:09:37;;;;;;;13.10;4.13;;;6.70;84.60;;;7.38;63.78;98437.84;5074034;28;20053;-58
2024/01/23 05:12:05;;;;;;;7.53;2.47;;;6.60;86.10;;;7.45;63.49;98431.09;5073346;28;20033;-57
2024/01/23 05:14:33;;;;;;;7.07;2.27;;;6.50;87.70;;;7.40;63.95;98417.34;5073106;28;20051;-58
2024/01/23 05:17:00;;;;;;;10.90;3.20;;;6.50;87.80;;;7.54;63.36;98437.47;5073081;28;20056;-57
2024/01/23 05:19:29;;;;;;;6.97;2.03;;;6.60;86.80;;;7.48;63.46;98465.31;5073385;28;20047;-57
2024/01/23 05:21:57;;;;;;;10.33;3.20;;;6.50;86.90;;;7.56;62.82;98445.28;5072906;28;20045;-58
2024/01/23 05:24:27;;;;;;;10.40;1.93;;;6.50;86.00;;;7.59;62.61;98453.00;5073020;28;20044;-57
2024/01/23 05:26:55;;;;;;;5.77;1.53;;;6.50;86.10;;;7.56;62.93;98461.19;5072922;28;20060;-58
2024/01/23 05:29:22;;;;;;;7.80;2.43;;;6.50;86.00;;;7.41;62.82;98477.34;5073221;28;20044;-58
2024/01/23 05:31:50;;;;;;;6.60;1.67;;;6.40;85.50;;;7.45;62.94;98480.59;5072922;28;20486;-57
2024/01/23 05:34:17;;;;;;;5.33;2.70;;;6.40;86.20;;;7.49;62.53;98492.63;5072525;28;20059;-58
2024/01/23 05:36:45;;;;;;;9.57;2.13;;;6.40;85.80;;;7.39;63.07;98476.63;5072928;28;20049;-58
2024/01/23 05:39:14;;;;;;;6.57;2.53;;;6.40;87.00;;;7.37;63.40;98490.97;5071327;28;20052;-58
2024/01/23 05:41:42;;;;;;;10.63;2.37;;;6.30;86.60;;;7.38;63.14;98487.34;5070966;28;20427;-58
2024/01/23 05:44:10;;;;;;;7.63;1.97;;;6.30;86.30;;;7.33;62.82;98508.03;5072175;28;20484;-57
2024/01/23 05:46:37;;;;;;;9.00;2.20;;;6.30;86.10;;;7.26;63.35;98505.88;5072709;28;20047;-58
2024/01/23 05:49:06;;;;;;;8.77;4.03;;;6.30;85.70;;;7.30;62.76;98493.22;5072667;28;20519;-58
2024/01/23 05:51:33;;;;;;;3.97;1.77;;;6.30;86.00;;;7.32;63.15;98507.19;5071620;28;20051;-58
2024/01/23 05:54:01;;;;;;;6.90;2.23;;;6.30;85.80;;;7.39;62.88;98492.53;5063304;28;20068;-58
2024/01/23 05:56:29;;;;;;;7.93;2.20;;;6.30;86.00;;;7.37;62.74;98497.09;5073032;28;20384;-58
2024/01/23 05:58:56;;;;;;;6.53;1.63;;;6.20;85.80;;;7.42;62.26;98500.22;5072459;28;20048;-58
2024/01/23 06:01:24;;;;;;;9.50;2.47;;;6.20;85.60;;;7.41;62.31;98525.03;5072726;28;20504;-58
2024/01/23 06:03:51;;;;;;;7.77;1.53;;;6.20;85.20;;;7.28;62.26;98546.31;5071951;28;20411;-58
2024/01/23 06:06:19;;;;;;;3.70;2.47;;;6.20;85.70;;;6.99;63.73;98553.00;5072434;28;20044;-58
2024/01/23 06:08:47;;;;;;;2.30;1.27;;;6.10;86.10;;;6.86;63.94;98564.53;5072458;28;20072;-58
2024/01/23 06:11:15;;;;;;;6.97;1.67;;;6.00;86.80;;;7.07;63.01;98564.69;5072430;28;20044;-58
2024/01/23 06:13:43;;;;;;;6.67;1.70;;;6.00;86.70;;;7.15;63.21;98571.22;5071555;28;20072;-58
2024/01/23 06:16:10;;;;;;;3.50;1.53;;;6.10;86.10;;;7.10;63.07;98579.53;5070322;28;20052;-58
2024/01/23 06:18:38;;;;;;;5.10;1.40;;;6.10;86.10;;;7.25;63.18;98590.72;5070316;28;20056;-58
2024/01/23 06:21:06;;;;;;;3.87;1.47;;;6.20;86.30;;;7.25;63.35;98604.84;5072082;28;20044;-58
2024/01/23 06:23:34;;;;;;;4.40;1.53;;;6.20;86.50;;;7.17;63.32;98604.56;5071501;28;20044;-59
2024/01/23 06:26:02;;;;;;;6.97;2.80;;;6.10;87.20;;;7.14;63.31;98620.69;5071823;28;20067;-58
2024/01/23 06:28:30;;;;;;;5.63;2.13;;;6.10;87.20;;;7.20;63.45;98622.88;5072012;28;20048;-59
2024/01/23 06:30:57;;;;;;;2.40;1.40;;;6.10;87.90;;;7.28;62.87;98628.44;5071918;28;20403;-59
2024/01/23 06:33:25;;;;;;;3.73;1.20;;;6.10;87.90;;;7.09;64.04;98644.88;5069332;28;20044;-58
2024/01/23 06:35:52;;;;;;;5.63;1.30;;;5.90;88.50;;;7.17;63.35;98627.56;5071504;28;20048;-58
2024/01/23 06:38:20;;;;;;;5.40;1.60;;;6.00;88.20;;;7.18;62.97;98642.50;5069814;28;20060;-58
2024/01/23 06:40:48;;;;;;;2.77;1.30;;;5.90;87.90;;;7.01;63.52;98657.00;5071423;28;20492;-59
2024/01/23 06:43:15;;;;;;;4.23;1.60;;;5.80;87.90;;;6.75;63.96;98653.63;5071429;28;20416;-59
2024/01/23 06:45:43;;;;;;;5.30;1.30;;;5.70;89.30;;;6.72;64.28;98649.41;5071484;28;20044;-59
2024/01/23 06:48:11;;;;;;;4.27;2.20;;;5.70;89.50;;;6.80;63.94;98659.41;5070427;28;20268;-59
2024/01/23 06:50:39;;;;;;;4.67;1.50;;;5.60;90.00;;;6.77;64.00;98662.31;5071627;28;20040;-59
2024/01/23 06:53:06;;;;;;;5.03;1.63;;;5.70;90.40;;;6.71;64.68;98668.91;5070311;28;20040;-58
2024/01/23 06:55:34;;;;;;;6.60;2.90;;;5.60;90.30;;;6.67;64.89;98685.97;5071515;28;20110;-58
2024/01/23 06:58:04;;;;;;;3.83;1.23;;;5.60;90.30;;;6.64;64.59;98686.16;5071222;28;20055;-58
2024/01/23 07:00:33;;;;;;;5.47;1.50;;;5.60;90.50;;;6.76;64.59;98700.31;5069669;28;20051;-58
2024/01/23 07:03:01;;;;;;;2.07;1.00;;;5.60;89.20;;;6.65;64.33;98699.28;5052555;28;20050;-57
2024/01/23 07:05:28;;;;;;;6.33;1.90;;;5.60;87.80;;;6.60;64.29;98712.00;5071217;28;20052;-57
2024/01/23 07:07:56;;;;;;;6.03;1.83;;;5.60;86.90;;;6.54;63.99;98704.50;5071110;28;20458;-58
2024/01/23 07:10:24;;;;;;;5.83;2.77;;;5.60;85.90;;;6.66;63.42;98716.84;5071229;28;20513;-57
2024/01/23 07:12:51;;;;;;;6.53;2.17;;;5.60;86.00;;;6.73;62.77;98722.56;5070646;28;20092;-59
2024/01/23 07:15:19;;;;;;;5.53;1.43;;;5.60;85.60;;;6.58;63.33;98729.78;5070056;28;20041;-57
2024/01/23 07:17:47;;;;;;;6.67;1.40;;;5.60;84.70;;;6.48;63.44;98734.03;5071231;28;20040;-57
2024/01/23 07:20:14;;;;;;;6.90;2.30;;;5.50;84.50;;;6.60;63.30;98733.16;5071113;28;20056;-56
2024/01/23 07:22:42;;;;;;;6.70;2.90;;;5.50;85.10;;;6.55;62.45;98742.38;5070823;28;20044;-57
2024/01/23 07:25:10;;;;;;;3.50;1.43;;;5.50;84.20;;;6.74;62.77;98742.75;5086404;28;20048;-58
2024/01/23 07:27:40;;;;;;;9.37;2.27;;;5.60;84.00;;;6.79;62.62;98748.56;5069382;28;20045;-58
2024/01/23 07:30:08;;;;;;;9.60;2.13;;;5.70;84.30;;;6.84;62.68;98758.81;5070920;28;20052;-58
2024/01/23 07:32:36;;;;;;;7.73;1.80;;;5.70;84.60;;;6.88;62.18;98755.84;5070671;28;20045;-55
2024/01/23 07:35:04;;;;;;;5.53;1.77;;;5.70;85.10;;;6.93;62.40;98752.88;5070374;28;20052;-55
2024/01/23 07:37:31;;;;;;;6.40;2.07;;;5.80;85.20;;;6.95;62.59;98750.13;5070967;28;20053;-58
2024/01/23 07:39:59;;;;;;;8.20;2.73;;;5.80;85.00;;;7.02;62.64;98751.38;5070445;28;20040;-58
2024/01/23 07:42:27;;;;;;;4.73;1.97;;;5.80;85.20;;;6.88;62.76;98760.28;5069253;28;20040;-58
2024/01/23 07:44:55;;;;;;;4.07;2.50;;;5.80;85.20;;;6.73;63.52;98770.19;5065079;28;20052;-57
2024/01/23 07:47:23;;;;;;;7.37;1.83;;;5.80;86.20;;;6.84;63.33;98762.34;5084436;28;20052;-58
2024/01/23 07:49:50;;;;;;;7.37;2.40;;;5.80;86.40;;;6.95;63.27;98772.13;5068634;28;20040;-58
2024/01/23 07:52:21;;;;;;;6.43;2.43;;;5.80;86.30;;;6.81;63.41;98781.06;5075571;28;20047;-59
2024/01/23 07:54:50;;;;;;;6.53;3.30;;;5.80;86.70;;;6.86;63.14;98778.94;5072616;28;20044;-59
2024/01/23 07:57:18;;;;;;;10.77;2.30;;;5.80;86.90;;;6.97;63.29;98798.50;5070747;28;20055;-58
2024/01/23 07:59:45;;;;;;;12.83;2.80;;;5.80;87.00;;;6.97;63.39;98793.22;5070558;28;20052;-59
2024/01/23 08:02:13;;;;;;;7.53;3.80;;;5.80;87.30;;;6.90;63.60;98801.59;5070367;28;20427;-59
2024/01/23 08:04:41;;;;;;;14.73;2.93;;;5.80;87.40;;;6.94;63.43;98793.41;5068772;28;20508;-61
2024/01/23 08:07:12;;;;;;;5.87;2.30;;;5.80;87.60;;;7.01;63.14;98807.91;5070552;28;20447;-61
2024/01/23 08:09:40;;;;;;;11.07;2.87;;;5.80;86.60;;;7.13;63.03;98808.84;5070203;28;20053;-60
2024/01/23 08:12:08;;;;;;;9.53;2.90;;;5.80;87.00;;;7.08;63.23;98814.47;5070223;28;20049;-61
2024/01/23 08:14:35;;;;;;;8.67;2.40;;;5.90;86.40;;;7.06;63.20;98817.22;5071649;28;20048;-61
2024/01/23 08:17:03;;;;;;;10.00;3.73;;;5.90;86.60;;;7.22;62.93;98821.41;5074350;28;20056;-58
2024/01/23 08:19:31;;;;;;;9.20;2.53;;;6.00;86.00;;;7.23;62.93;98831.03;5072577;28;20503;-59
2024/01/23 08:21:58;;;;;;;7.47;1.93;;;6.00;86.00;;;7.13;62.87;98838.81;5073703;28;20060;-59
2024/01/23 08:24:26;;;;;;;9.63;2.70;;;6.00;85.70;;;7.12;63.33;98823.03;5072668;28;20049;-59
2024/01/23 08:26:54;;;;;;;9.83;2.40;;;6.10;85.60;;;7.15;62.75;98828.09;5074273;28;20207;-58
2024/01/23 08:29:22;;;;;;;8.23;2.23;;;6.10;84.70;;;7.22;62.61;98818.75;5074376;28;20048;-58
2024/01/23 08:31:49;;;;;;;9.13;2.33;;;6.10;84.80;;;7.33;62.75;98828.56;5072809;28;20055;-58
2024/01/23 08:34:17;;;;;;;8.37;2.80;;;6.20;84.60;;;7.35;62.45;98824.88;5065645;28;20075;-58
2024/01/23 08:36:45;;;;;;;9.87;2.93;;;6.10;85.30;;;7.33;62.36;98834.72;5074192;28;20055;-58
2024/01/23 08:39:13;;;;;;;6.20;3.50;;;6.20;84.60;;;7.39;62.41;98839.56;5073710;28;20051;-58
2024/01/23 08:41:40;;;;;;;7.47;2.57;;;6.20;84.70;;;7.42;61.81;98828.75;5074038;28;20044;-58
2024/01/23 08:44:08;;;;;;;8.47;2.90;;;6.20;83.80;;;7.41;61.93;98835.00;5073337;28;20048;-58
2024/01/23 08:46:35;;;;;;;9.43;2.50;;;6.20;84.00;;;7.56;61.55;98856.91;5071257;28;20049;-58
2024/01/23 08:49:03;;;;;;;10.27;2.67;;;6.30;83.30;;;7.64;61.86;98845.75;5055463;28;20504;-58
2024/01/23 08:51:31;;;;;;;7.17;2.40;;;6.40;83.80;;;7.67;61.39;98850.78;5073655;28;20052;-58
2024/01/23 08:54:00;;;;;;;8.80;2.13;;;6.40;82.80;;;7.65;61.23;98858.00;5072651;28;20040;-58
2024/01/23 08:56:30;;;;;;;5.67;2.07;;;6.50;82.30;;;7.61;61.23;98856.56;5072355;28;20044;-58
2024/01/23 08:58:57;;;;;;;6.00;1.77;;;6.50;82.20;;;7.56;61.42;98861.34;5073440;28;20040;-58
2024/01/23 09:01:25;;;;;;;8.17;1.90;;;6.50;82.00;;;7.62;61.52;98864.41;5073822;28;20071;-58
2024/01/23 09:03:52;;;;;;;11.07;3.50;;;6.50;82.50;;;7.74;61.08;98853.84;5073406;28;20032;-58
2024/01/23 09:06:20;;;;;;;8.40;2.53;;;6.60;82.30;;;7.77;60.75;98866.88;5065524;28;20063;-57
2024/01/23 09:08:48;;;;;;;10.60;2.47;;;6.60;81.80;;;7.90;61.04;98875.59;5072547;28;20071;-58
2024/01/23 09:11:16;;;;;;;6.40;2.43;;;6.60;81.10;;;8.00;60.77;98871.28;5073660;28;20040;-58
2024/01/23 09:13:44;;;;;;;11.40;3.40;;;6.70;81.50;;;8.06;61.01;98876.16;5071494;28;20039;-58
2024/01/23 09:16:11;;;;;;;11.00;2.27;;;6.80;80.80;;;7.92;60.14;98886.94;5073435;28;20041;-58
2024/01/23 09:18:40;;;;;;;6.07;2.30;;;6.70;79.30;;;8.06;60.38;98894.72;5073842;28;20290;-59
2024/01/23 09:21:08;;;;;;;9.63;2.20;;;6.80;80.70;;;8.15;60.23;98893.19;5073754;28;20033;-58
2024/01/23 09:23:39;;;;;;;8.73;3.10;;;6.80;80.90;;;8.18;60.01;98895.59;5071323;28;20037;-57
2024/01/23 09:26:07;;;;;;;10.57;2.37;;;6.90;80.20;;;8.08;60.06;98905.19;5072883;28;20420;-58
2024/01/23 09:28:34;;;;;;;6.83;1.97;;;6.90;79.50;;;8.16;59.93;98913.44;5073158;28;20483;-58
2024/01/23 09:31:02;;;;;;;7.47;2.03;;;6.90;79.30;;;8.25;59.28;98917.22;5072959;28;20435;-58
2024/01/23 09:33:30;;;;;;;9.47;3.47;;;6.90;78.80;;;8.17;59.71;98912.47;5072724;28;20056;-57
2024/01/23 09:35:57;;;;;;;9.70;2.50;;;6.90;79.50;;;8.15;59.45;98929.47;5072776;28;20048;-57
2024/01/23 09:38:25;;;;;;;7.23;3.43;;;6.90;79.20;;;8.22;59.41;98933.34;5071278;28;20044;-58
2024/01/23 09:40:53;;;;;;;6.27;2.50;;;7.00;78.50;;;8.19;59.10;98934.44;5070824;28;20043;-57
2024/01/23 09:43:21;;;;;;;6.53;2.10;;;7.00;78.50;;;8.17;59.10;98939.00;5071094;28;20041;-58
2024/01/23 09:45:51;;;;;;;8.93;2.73;;;6.90;78.40;;;8.25;59.11;98933.13;5072638;28;20037;-58
2024/01/23 09:48:19;;;;;;;5.40;2.10;;;7.10;78.50;;;8.25;59.12;98947.22;5071828;28;20040;-58
2024/01/23 09:50:53;;;;;;;10.32;2.53;;;7.10;78.00;;;8.27;59.19;98944.47;5070863;28;20492;-59
2024/01/23 09:53:23;;;;;;;5.50;2.80;;;7.10;77.70;;;8.38;59.08;98943.69;5069588;28;20053;-58
2024/01/23 09:55:51;;;;;;;6.10;2.20;;;7.10;77.90;;;8.13;58.86;98932.25;5071307;28;20044;-57
2024/01/23 09:58:20;;;;;;;6.90;2.60;;;7.00;78.20;;;8.07;59.02;98933.53;5072269;28;20075;-59
2024/01/23 10:00:48;;;;;;;11.90;2.30;;;7.00;77.30;;;8.24;58.90;98950.84;5072364;28;20047;-57
2024/01/23 10:03:16;;;;;;;6.13;2.17;;;7.00;78.70;;;8.23;58.93;98943.84;5071883;28;20055;-56
2024/01/23 10:05:44;;;;;;;4.13;1.87;;;7.00;77.50;;;7.95;58.63;98949.50;5072340;28;20111;-57
2024/01/23 10:08:12;;;;;;;9.53;2.10;;;6.90;76.50;;;7.98;59.27;98950.13;5072019;28;20104;-59
2024/01/23 10:10:39;;;;;;;12.23;2.83;;;6.90;77.70;;;8.12;58.81;98933.19;5072321;28;20063;-57
2024/01/23 10:13:11;;;;;;;8.93;2.23;;;7.00;76.90;;;8.05;58.87;98947.88;5071870;28;20051;-57
2024/01/23 10:15:39;;;;;;;10.60;3.57;;;7.00;77.30;;;8.14;58.75;98933.91;5071862;28;20049;-57
2024/01/23 10:18:07;;;;;;;6.63;3.67;;;7.10;77.00;;;7.99;58.78;98940.38;5071997;28;20055;-58
2024/01/23 10:20:40;;;;;;;8.83;1.97;;;7.00;76.40;;;7.90;58.70;98963.09;5072018;28;20040;-58
2024/01/23 10:23:07;;;;;;;7.50;2.10;;;6.90;75.70;;;7.87;58.91;98950.94;5071594;28;20515;-58
2024/01/23 10:25:38;;;;;;;10.27;2.70;;;6.90;76.20;;;7.91;58.79;98946.25;5071794;28;20047;-58
2024/01/23 10:28:10;;;;;;;5.50;2.00;;;6.90;76.10;;;7.95;58.68;98947.72;5071202;28;20040;-57
2024/01/23 10:30:43;;;;;;;10.27;2.97;;;7.00;76.00;;;7.93;58.88;98960.25;5070706;28;20044;-56
2024/01/23 10:33:12;;;;;;;9.00;2.97;;;7.00;76.30;;;7.97;58.45;98950.22;5070302;28;20044;-57
2024/01/23 10:35:43;;;;;;;10.10;2.80;;;7.10;75.70;;;7.96;58.59;98949.38;5071494;28;20040;-57